createdAt,value
2024-02-08T00:02:38.166Z,99949.41
2024-02-08T00:12:41.080Z,99946.16
2024-02-08T00:22:47.666Z,99945.44
2024-02-08T00:32:49.931Z,99925.81
2024-02-08T00:42:51.926Z,99906.22
2024-02-08T00:52:56.297Z,99915.78
2024-02-08T01:03:00.689Z,99918.31
2024-02-08T01:13:02.243Z,99916.75
2024-02-08T01:23:05.720Z,99910.84
2024-02-08T01:33:07.586Z,99923.59
2024-02-08T01:43:11.804Z,99926.06
2024-02-08T01:53:16.258Z,99929.66
2024-02-08T02:03:20.552Z,99944.09
2024-02-08T02:13:22.379Z,99925.44
2024-02-08T02:23:24.416Z,99908.38
2024-02-08T02:33:26.961Z,99884.84
2024-02-08T02:43:28.558Z,99881.56
2024-02-08T02:53:32.668Z,99889.06
2024-02-08T03:03:38.914Z,99871.94
2024-02-08T03:13:41.978Z,99873.78
2024-02-08T03:23:45.755Z,99866.13
2024-02-08T03:33:47.190Z,99845.84
2024-02-08T03:43:49.080Z,99841.66
2024-02-08T03:53:50.641Z,99834.31
2024-02-08T04:03:56.655Z,99849.50
2024-02-08T04:14:16.644Z,99840.94
2024-02-08T04:24:37.503Z,99844.50
2024-02-08T04:34:58.911Z,99840.44
2024-02-08T04:45:18.818Z,99830.31
2024-02-08T04:55:20.198Z,99826.72
2024-02-08T05:05:21.600Z,99833.50
2024-02-08T05:15:23.618Z,99813.06
2024-02-08T05:25:26.849Z,99809.78
2024-02-08T05:35:33.169Z,99796.06
2024-02-08T05:45:34.618Z,99782.41
2024-02-08T05:55:36.758Z,99787.50
2024-02-08T06:05:38.124Z,99785.84
2024-02-08T06:15:44.037Z,99791.75
2024-02-08T06:26:26.773Z,99791.78
2024-02-08T06:36:28.262Z,99766.41
2024-02-08T06:46:48.677Z,99761.16
2024-02-08T06:57:08.714Z,99773.09
2024-02-08T07:07:29.208Z,99772.38
2024-02-08T07:17:49.450Z,99763.16
2024-02-08T07:28:09.273Z,99746.09
2024-02-08T07:38:10.696Z,99747.88
2024-02-08T07:48:36.567Z,99713.03
2024-02-08T07:58:43.212Z,99709.63
2024-02-08T08:08:56.061Z,99699.47
2024-02-08T08:18:58.548Z,99691.00
2024-02-08T08:29:03.615Z,99678.31
2024-02-08T08:39:23.611Z,99651.13
2024-02-08T08:49:30.483Z,99637.56
2024-02-08T08:59:33.999Z,99624.00
2024-02-08T09:09:55.582Z,99620.69
2024-02-08T09:20:00.326Z,99619.03
2024-02-08T09:30:10.286Z,99589.31
2024-02-08T09:40:34.114Z,99562.03
2024-02-08T09:50:44.654Z,99550.19
2024-02-08T10:00:56.262Z,99519.50
2024-02-08T10:11:12.978Z,99493.94
2024-02-08T10:21:15.362Z,99493.94
2024-02-08T10:31:23.645Z,99496.56
2024-02-08T10:41:37.045Z,99488.88
2024-02-08T10:51:44.587Z,99428.28
2024-02-08T11:01:50.151Z,99418.91
2024-02-08T11:12:01.114Z,99397.56
2024-02-08T11:22:41.656Z,99354.03
2024-02-08T11:32:58.104Z,99337.78
2024-02-08T11:43:08.031Z,99318.16
2024-02-08T11:53:11.384Z,99308.78
2024-02-08T12:03:17.733Z,99304.50
2024-02-08T12:13:26.841Z,99300.22
2024-02-08T12:23:33.199Z,99347.19
2024-02-08T12:33:35.975Z,99285.72
2024-02-08T12:43:38.751Z,99263.47
2024-02-08T12:53:44.000Z,99237.84
2024-02-08T13:03:45.460Z,99184.84
2024-02-08T13:13:49.270Z,99182.31
2024-02-08T13:23:50.761Z,99162.66
2024-02-08T13:33:53.735Z,99146.41
2024-02-08T13:43:55.441Z,99142.13
2024-02-08T13:53:56.937Z,99122.50
2024-02-08T14:03:59.961Z,99104.59
2024-02-08T14:14:04.368Z,99078.97
2024-02-08T14:24:12.710Z,99047.41
2024-02-08T14:34:15.459Z,99059.41
2024-02-08T14:44:19.156Z,99002.22
2024-02-08T14:54:20.689Z,98987.69
2024-02-08T15:04:26.716Z,98949.28
2024-02-08T15:14:37.734Z,98920.34
2024-02-08T15:24:47.549Z,98916.94
2024-02-08T15:34:54.652Z,98905.00
2024-02-08T15:44:59.736Z,98885.38
2024-02-08T15:55:14.526Z,98864.13
2024-02-08T16:05:16.444Z,98842.78
2024-02-08T16:15:18.970Z,98840.19
2024-02-08T16:25:41.579Z,98797.59
2024-02-08T16:35:58.796Z,98802.69
2024-02-08T16:46:06.599Z,98793.28
2024-02-08T16:56:11.635Z,98769.41
2024-02-08T17:06:17.548Z,98777.91
2024-02-08T17:16:31.325Z,98769.31
2024-02-08T17:26:35.591Z,98767.59
2024-02-08T17:36:44.633Z,98751.34
2024-02-08T17:46:47.741Z,98741.88
2024-02-08T17:56:49.393Z,98734.16
2024-02-08T18:07:00.033Z,98733.22
2024-02-08T18:17:05.448Z,98715.19
2024-02-08T18:27:08.555Z,98724.56
2024-02-08T18:37:12.744Z,98717.63
2024-02-08T18:47:19.415Z,98713.22
2024-02-08T18:57:20.957Z,98702.91
2024-02-08T19:07:22.680Z,98696.03
2024-02-08T19:17:26.567Z,98675.31
2024-02-08T19:27:29.990Z,98677.00
2024-02-08T19:37:34.737Z,98654.66
2024-02-08T19:47:39.023Z,98645.94
2024-02-08T19:57:40.685Z,98638.88
2024-02-08T20:07:42.488Z,98616.16
2024-02-08T20:17:50.317Z,98618.06
2024-02-08T20:27:57.847Z,98617.72
2024-02-08T20:38:00.592Z,98619.50
2024-02-08T20:48:09.099Z,98611.44
2024-02-08T20:58:17.668Z,98609.66
2024-02-08T21:08:19.272Z,98604.34
2024-02-08T21:18:21.039Z,98599.09
2024-02-08T21:28:27.024Z,98594.88
2024-02-08T21:38:29.968Z,98594.94
2024-02-08T21:48:32.202Z,98591.53
2024-02-08T21:58:33.764Z,98587.53
2024-02-08T22:08:37.200Z,98588.38
2024-02-08T22:18:39.173Z,98571.91
2024-02-08T22:28:44.055Z,98569.03
2024-02-08T22:38:46.772Z,98549.38
2024-02-08T22:48:48.308Z,98536.00
2024-02-08T22:58:49.733Z,98514.34
2024-02-08T23:08:51.180Z,98507.28
2024-02-08T23:18:52.652Z,98496.28
2024-02-08T23:28:55.672Z,98488.91
2024-02-08T23:39:00.882Z,98474.44
2024-02-08T23:49:02.557Z,98460.38
2024-02-08T23:59:05.556Z,98438.06
